Terminal Aerodrome Forecast
Issued by NWS Springfield, MO

Home | Current Version | Previous Version | Text Only | Print | Product List | Glossary On
Versions: 1 2 3 4 5 6 7 8 9 10 11 12 13 14 15 16
000
FTUS43 KSGF 241720
TAFSGF
TAF
KSGF 241720Z 2418/2518 26007KT P6SM SCT250
     FM242300 20004KT P6SM BKN090
     FM250100 17005KT P6SM VCTS SCT050CB BKN250
     FM250300 15006KT P6SM SCT250 PROB30 2503/2504 4SM -TSRA
      SCT050CB BKN100
     FM251200 VRB03KT P6SM OVC090=

USA.gov is the U.S. government's official web portal to all federal, state and local government web resources and services.